Terminal Aerodrome Forecast
Issued by NWS

Home | Current Version | Previous Version | Text Only | Print | Product List | Glossary On
Versions: 1 2 3 4 5 6 7 8 9 10 11 12 13 14 15 16 17 18 19 20 21 22 23
000
FTUS44 KBMX 071023 CCA
TAFTCL
TAF COR
KTCL 071023Z 0710/0806 00000KT 4SM BR SKC
      TEMPO 0710/0713 1/2SM BCFG VV005
     FM071400 22005KT P6SM SKC=

USA.gov is the U.S. government's official web portal to all federal, state and local government web resources and services.